sensor_id;sensor_type;location;lat;lon;timestamp;temperature;humidity
66608;DHT22;53462;39.616;8.824;2023-07-13T00:01:52;28.30;65.00
66608;DHT22;53462;39.616;8.824;2023-07-13T00:04:21;28.40;65.00
66608;DHT22;53462;39.616;8.824;2023-07-13T00:06:48;28.30;65.10
66608;DHT22;53462;39.616;8.824;2023-07-13T00:09:16;28.40;65.10
66608;DHT22;53462;39.616;8.824;2023-07-13T00:11:43;28.30;65.20
66608;DHT22;53462;39.616;8.824;2023-07-13T00:14:10;28.30;65.40
66608;DHT22;53462;39.616;8.824;2023-07-13T00:16:38;28.30;65.60
66608;DHT22;53462;39.616;8.824;2023-07-13T00:19:05;28.30;65.50
66608;DHT22;53462;39.616;8.824;2023-07-13T00:21:31;28.30;65.60
66608;DHT22;53462;39.616;8.824;2023-07-13T00:23:58;28.30;65.70
66608;DHT22;53462;39.616;8.824;2023-07-13T00:26:24;28.30;65.70
66608;DHT22;53462;39.616;8.824;2023-07-13T00:28:50;28.20;65.90
66608;DHT22;53462;39.616;8.824;2023-07-13T00:31:17;28.20;65.80
66608;DHT22;53462;39.616;8.824;2023-07-13T00:33:43;28.20;65.90
66608;DHT22;53462;39.616;8.824;2023-07-13T00:36:10;28.20;66.10
66608;DHT22;53462;39.616;8.824;2023-07-13T00:38:36;28.20;65.90
66608;DHT22;53462;39.616;8.824;2023-07-13T00:41:03;28.20;66.00
66608;DHT22;53462;39.616;8.824;2023-07-13T00:43:30;28.10;66.10
66608;DHT22;53462;39.616;8.824;2023-07-13T00:46:10;28.10;66.10
66608;DHT22;53462;39.616;8.824;2023-07-13T00:48:37;28.10;66.10
66608;DHT22;53462;39.616;8.824;2023-07-13T00:51:03;28.10;66.30
66608;DHT22;53462;39.616;8.824;2023-07-13T00:53:31;28.00;66.60
66608;DHT22;53462;39.616;8.824;2023-07-13T00:55:58;28.00;66.50
66608;DHT22;53462;39.616;8.824;2023-07-13T00:58:25;28.00;66.50
66608;DHT22;53462;39.616;8.824;2023-07-13T01:00:53;28.00;66.70
66608;DHT22;53462;39.616;8.824;2023-07-13T01:03:19;27.80;67.20
66608;DHT22;53462;39.616;8.824;2023-07-13T01:05:48;27.50;67.90
66608;DHT22;53462;39.616;8.824;2023-07-13T01:08:15;27.30;68.80
66608;DHT22;53462;39.616;8.824;2023-07-13T01:10:50;27.10;69.30
66608;DHT22;53462;39.616;8.824;2023-07-13T01:13:17;27.00;69.70
66608;DHT22;53462;39.616;8.824;2023-07-13T01:15:46;27.20;69.50
66608;DHT22;53462;39.616;8.824;2023-07-13T01:18:24;27.30;69.00
66608;DHT22;53462;39.616;8.824;2023-07-13T01:20:57;27.50;68.10
66608;DHT22;53462;39.616;8.824;2023-07-13T01:23:24;27.50;67.90
66608;DHT22;53462;39.616;8.824;2023-07-13T01:25:52;27.50;67.90
66608;DHT22;53462;39.616;8.824;2023-07-13T01:28:18;27.50;67.60
66608;DHT22;53462;39.616;8.824;2023-07-13T01:30:46;27.50;67.60
66608;DHT22;53462;39.616;8.824;2023-07-13T01:33:16;27.50;67.30
66608;DHT22;53462;39.616;8.824;2023-07-13T01:35:47;27.50;66.90
66608;DHT22;53462;39.616;8.824;2023-07-13T01:38:16;27.50;66.50
66608;DHT22;53462;39.616;8.824;2023-07-13T01:40:43;27.60;66.20
66608;DHT22;53462;39.616;8.824;2023-07-13T01:43:09;27.70;65.90
66608;DHT22;53462;39.616;8.824;2023-07-13T01:45:35;27.70;65.60
66608;DHT22;53462;39.616;8.824;2023-07-13T01:48:02;27.60;65.40
66608;DHT22;53462;39.616;8.824;2023-07-13T01:50:28;27.60;65.30
66608;DHT22;53462;39.616;8.824;2023-07-13T01:52:54;27.70;65.00
66608;DHT22;53462;39.616;8.824;2023-07-13T01:55:21;27.60;65.00
66608;DHT22;53462;39.616;8.824;2023-07-13T01:57:48;27.60;65.40
66608;DHT22;53462;39.616;8.824;2023-07-13T02:00:15;27.50;65.50
66608;DHT22;53462;39.616;8.824;2023-07-13T02:02:47;27.50;65.60
66608;DHT22;53462;39.616;8.824;2023-07-13T02:05:13;27.50;65.50
66608;DHT22;53462;39.616;8.824;2023-07-13T02:07:41;27.50;65.60
66608;DHT22;53462;39.616;8.824;2023-07-13T02:10:08;27.50;65.70
66608;DHT22;53462;39.616;8.824;2023-07-13T02:12:35;27.50;65.70
66608;DHT22;53462;39.616;8.824;2023-07-13T02:15:01;27.40;66.60
66608;DHT22;53462;39.616;8.824;2023-07-13T02:17:27;27.20;67.20
66608;DHT22;53462;39.616;8.824;2023-07-13T02:19:53;27.10;67.60
66608;DHT22;53462;39.616;8.824;2023-07-13T02:22:20;26.80;68.10
66608;DHT22;53462;39.616;8.824;2023-07-13T02:24:46;26.80;68.50
66608;DHT22;53462;39.616;8.824;2023-07-13T02:27:13;26.80;68.60
66608;DHT22;53462;39.616;8.824;2023-07-13T02:29:39;26.70;69.10
66608;DHT22;53462;39.616;8.824;2023-07-13T02:32:06;26.50;69.40
66608;DHT22;53462;39.616;8.824;2023-07-13T02:34:32;26.40;70.20
66608;DHT22;53462;39.616;8.824;2023-07-13T02:36:58;26.40;70.30
66608;DHT22;53462;39.616;8.824;2023-07-13T02:39:24;26.40;70.20
66608;DHT22;53462;39.616;8.824;2023-07-13T02:41:50;26.50;69.70
66608;DHT22;53462;39.616;8.824;2023-07-13T02:44:16;26.60;69.50
66608;DHT22;53462;39.616;8.824;2023-07-13T02:46:42;26.50;69.70
66608;DHT22;53462;39.616;8.824;2023-07-13T02:49:08;26.50;70.20
66608;DHT22;53462;39.616;8.824;2023-07-13T02:51:34;26.30;70.40
66608;DHT22;53462;39.616;8.824;2023-07-13T02:54:02;26.20;71.00
66608;DHT22;53462;39.616;8.824;2023-07-13T02:56:29;26.20;71.00
66608;DHT22;53462;39.616;8.824;2023-07-13T02:58:56;26.20;71.10
66608;DHT22;53462;39.616;8.824;2023-07-13T03:01:23;26.30;70.50
66608;DHT22;53462;39.616;8.824;2023-07-13T03:03:50;26.30;70.20
66608;DHT22;53462;39.616;8.824;2023-07-13T03:06:18;26.40;70.30
66608;DHT22;53462;39.616;8.824;2023-07-13T03:08:50;26.40;70.60
66608;DHT22;53462;39.616;8.824;2023-07-13T03:11:20;26.30;70.70
66608;DHT22;53462;39.616;8.824;2023-07-13T03:14:08;26.00;71.20
66608;DHT22;53462;39.616;8.824;2023-07-13T03:16:36;25.80;72.10
66608;DHT22;53462;39.616;8.824;2023-07-13T03:19:02;25.70;72.70
66608;DHT22;53462;39.616;8.824;2023-07-13T03:21:29;25.60;72.70
66608;DHT22;53462;39.616;8.824;2023-07-13T03:23:55;25.60;72.90
66608;DHT22;53462;39.616;8.824;2023-07-13T03:26:21;25.50;73.10
66608;DHT22;53462;39.616;8.824;2023-07-13T03:28:48;25.40;73.20
66608;DHT22;53462;39.616;8.824;2023-07-13T03:31:21;25.40;73.50
66608;DHT22;53462;39.616;8.824;2023-07-13T03:33:48;25.50;73.30
66608;DHT22;53462;39.616;8.824;2023-07-13T03:36:18;25.50;73.30
66608;DHT22;53462;39.616;8.824;2023-07-13T03:38:50;25.40;73.70
66608;DHT22;53462;39.616;8.824;2023-07-13T03:41:21;25.40;73.80
66608;DHT22;53462;39.616;8.824;2023-07-13T03:43:49;25.50;73.60
66608;DHT22;53462;39.616;8.824;2023-07-13T03:46:17;25.60;73.30
66608;DHT22;53462;39.616;8.824;2023-07-13T03:48:45;25.50;73.00
66608;DHT22;53462;39.616;8.824;2023-07-13T03:51:13;25.40;73.30
66608;DHT22;53462;39.616;8.824;2023-07-13T03:53:42;25.40;73.40
66608;DHT22;53462;39.616;8.824;2023-07-13T03:56:09;25.10;73.90
66608;DHT22;53462;39.616;8.824;2023-07-13T03:58:38;25.00;74.60
66608;DHT22;53462;39.616;8.824;2023-07-13T04:01:12;24.80;75.20
66608;DHT22;53462;39.616;8.824;2023-07-13T04:03:39;24.60;75.90
66608;DHT22;53462;39.616;8.824;2023-07-13T04:06:07;24.40;76.50
66608;DHT22;53462;39.616;8.824;2023-07-13T04:08:35;24.30;77.40
66608;DHT22;53462;39.616;8.824;2023-07-13T04:11:03;24.40;77.60
66608;DHT22;53462;39.616;8.824;2023-07-13T04:13:29;24.50;77.50
66608;DHT22;53462;39.616;8.824;2023-07-13T04:15:56;24.60;77.50
66608;DHT22;53462;39.616;8.824;2023-07-13T04:18:22;24.60;77.20
66608;DHT22;53462;39.616;8.824;2023-07-13T04:20:49;24.50;77.30
66608;DHT22;53462;39.616;8.824;2023-07-13T04:23:16;24.50;77.40
66608;DHT22;53462;39.616;8.824;2023-07-13T04:25:51;24.50;77.50
66608;DHT22;53462;39.616;8.824;2023-07-13T04:28:26;24.60;77.40
66608;DHT22;53462;39.616;8.824;2023-07-13T04:30:56;24.70;77.20
66608;DHT22;53462;39.616;8.824;2023-07-13T04:33:24;24.70;77.30
66608;DHT22;53462;39.616;8.824;2023-07-13T04:35:55;24.60;76.90
66608;DHT22;53462;39.616;8.824;2023-07-13T04:38:31;24.50;77.40
66608;DHT22;53462;39.616;8.824;2023-07-13T04:41:05;24.40;78.00
66608;DHT22;53462;39.616;8.824;2023-07-13T04:43:33;24.40;78.30
66608;DHT22;53462;39.616;8.824;2023-07-13T04:46:08;24.40;78.80
66608;DHT22;53462;39.616;8.824;2023-07-13T04:48:36;24.60;78.60
66608;DHT22;53462;39.616;8.824;2023-07-13T04:51:04;24.70;78.30
66608;DHT22;53462;39.616;8.824;2023-07-13T04:53:31;24.80;77.80
66608;DHT22;53462;39.616;8.824;2023-07-13T04:55:58;24.90;77.50
66608;DHT22;53462;39.616;8.824;2023-07-13T04:58:25;25.00;76.40
66608;DHT22;53462;39.616;8.824;2023-07-13T05:00:51;25.20;75.00
66608;DHT22;53462;39.616;8.824;2023-07-13T05:03:17;25.40;74.10
66608;DHT22;53462;39.616;8.824;2023-07-13T05:05:53;25.60;73.90
66608;DHT22;53462;39.616;8.824;2023-07-13T05:08:20;25.80;74.20
66608;DHT22;53462;39.616;8.824;2023-07-13T05:10:45;25.80;73.90
66608;DHT22;53462;39.616;8.824;2023-07-13T05:13:12;25.90;73.20
66608;DHT22;53462;39.616;8.824;2023-07-13T05:15:37;26.10;73.10
66608;DHT22;53462;39.616;8.824;2023-07-13T05:18:03;26.10;72.60
66608;DHT22;53462;39.616;8.824;2023-07-13T05:20:29;26.20;74.00
66608;DHT22;53462;39.616;8.824;2023-07-13T05:22:56;26.40;72.80
66608;DHT22;53462;39.616;8.824;2023-07-13T05:25:22;26.60;72.80
66608;DHT22;53462;39.616;8.824;2023-07-13T05:27:48;26.60;72.00
66608;DHT22;53462;39.616;8.824;2023-07-13T05:30:14;26.70;71.60
66608;DHT22;53462;39.616;8.824;2023-07-13T05:32:41;26.70;71.10
66608;DHT22;53462;39.616;8.824;2023-07-13T05:35:07;26.60;69.50
66608;DHT22;53462;39.616;8.824;2023-07-13T05:37:34;26.60;69.70
66608;DHT22;53462;39.616;8.824;2023-07-13T05:40:00;26.70;68.70
66608;DHT22;53462;39.616;8.824;2023-07-13T05:42:26;26.70;68.90
66608;DHT22;53462;39.616;8.824;2023-07-13T05:44:53;26.80;69.20
66608;DHT22;53462;39.616;8.824;2023-07-13T05:47:19;26.90;69.80
66608;DHT22;53462;39.616;8.824;2023-07-13T05:49:44;27.10;70.00
66608;DHT22;53462;39.616;8.824;2023-07-13T05:52:10;27.00;68.20
66608;DHT22;53462;39.616;8.824;2023-07-13T05:54:36;27.00;68.60
66608;DHT22;53462;39.616;8.824;2023-07-13T05:57:02;27.10;68.90
66608;DHT22;53462;39.616;8.824;2023-07-13T05:59:28;27.00;69.20
66608;DHT22;53462;39.616;8.824;2023-07-13T06:01:54;26.90;69.40
66608;DHT22;53462;39.616;8.824;2023-07-13T06:04:20;26.90;69.10
66608;DHT22;53462;39.616;8.824;2023-07-13T06:06:47;26.90;70.00
66608;DHT22;53462;39.616;8.824;2023-07-13T06:09:13;26.80;68.00
66608;DHT22;53462;39.616;8.824;2023-07-13T06:11:39;26.80;67.10
66608;DHT22;53462;39.616;8.824;2023-07-13T06:14:05;26.90;67.00
66608;DHT22;53462;39.616;8.824;2023-07-13T06:16:31;27.00;67.10
66608;DHT22;53462;39.616;8.824;2023-07-13T06:18:57;27.10;67.90
66608;DHT22;53462;39.616;8.824;2023-07-13T06:21:23;27.20;67.70
66608;DHT22;53462;39.616;8.824;2023-07-13T06:23:51;27.40;67.70
66608;DHT22;53462;39.616;8.824;2023-07-13T06:26:20;27.60;68.00
66608;DHT22;53462;39.616;8.824;2023-07-13T06:28:46;27.60;68.50
66608;DHT22;53462;39.616;8.824;2023-07-13T06:31:13;27.80;68.50
66608;DHT22;53462;39.616;8.824;2023-07-13T06:33:40;28.00;67.70
66608;DHT22;53462;39.616;8.824;2023-07-13T06:36:06;28.00;67.50
66608;DHT22;53462;39.616;8.824;2023-07-13T06:38:33;28.10;68.60
66608;DHT22;53462;39.616;8.824;2023-07-13T06:40:59;28.30;67.10
66608;DHT22;53462;39.616;8.824;2023-07-13T06:43:25;28.50;66.40
66608;DHT22;53462;39.616;8.824;2023-07-13T06:45:55;28.60;66.30
66608;DHT22;53462;39.616;8.824;2023-07-13T06:48:21;28.80;64.80
66608;DHT22;53462;39.616;8.824;2023-07-13T06:50:48;28.80;63.90
66608;DHT22;53462;39.616;8.824;2023-07-13T06:53:15;29.00;62.60
66608;DHT22;53462;39.616;8.824;2023-07-13T06:55:44;29.20;62.30
66608;DHT22;53462;39.616;8.824;2023-07-13T06:58:11;29.30;62.40
66608;DHT22;53462;39.616;8.824;2023-07-13T07:00:37;29.50;61.50
66608;DHT22;53462;39.616;8.824;2023-07-13T07:03:05;29.70;60.90
66608;DHT22;53462;39.616;8.824;2023-07-13T07:05:31;29.90;61.70
66608;DHT22;53462;39.616;8.824;2023-07-13T07:07:58;30.00;61.70
66608;DHT22;53462;39.616;8.824;2023-07-13T07:10:24;30.10;62.20
66608;DHT22;53462;39.616;8.824;2023-07-13T07:12:50;30.10;61.30
66608;DHT22;53462;39.616;8.824;2023-07-13T07:15:18;30.30;60.30
66608;DHT22;53462;39.616;8.824;2023-07-13T07:17:44;30.70;60.80
66608;DHT22;53462;39.616;8.824;2023-07-13T07:20:11;30.90;60.20
66608;DHT22;53462;39.616;8.824;2023-07-13T07:22:37;31.10;59.60
66608;DHT22;53462;39.616;8.824;2023-07-13T07:25:03;31.00;59.30
66608;DHT22;53462;39.616;8.824;2023-07-13T07:27:29;30.90;58.80
66608;DHT22;53462;39.616;8.824;2023-07-13T07:29:55;30.90;59.10
66608;DHT22;53462;39.616;8.824;2023-07-13T07:32:23;31.00;59.50
66608;DHT22;53462;39.616;8.824;2023-07-13T07:34:49;30.80;58.40
66608;DHT22;53462;39.616;8.824;2023-07-13T07:37:15;30.90;59.00
66608;DHT22;53462;39.616;8.824;2023-07-13T07:39:42;30.90;58.70
66608;DHT22;53462;39.616;8.824;2023-07-13T07:42:08;30.80;58.30
66608;DHT22;53462;39.616;8.824;2023-07-13T07:44:34;30.70;58.20
66608;DHT22;53462;39.616;8.824;2023-07-13T07:47:01;30.70;58.90
66608;DHT22;53462;39.616;8.824;2023-07-13T07:49:27;30.70;58.90
66608;DHT22;53462;39.616;8.824;2023-07-13T07:51:53;30.60;58.80
66608;DHT22;53462;39.616;8.824;2023-07-13T07:54:22;30.50;57.60
66608;DHT22;53462;39.616;8.824;2023-07-13T07:56:48;30.50;59.70
66608;DHT22;53462;39.616;8.824;2023-07-13T07:59:14;30.60;58.20
66608;DHT22;53462;39.616;8.824;2023-07-13T08:01:40;30.90;59.20
66608;DHT22;53462;39.616;8.824;2023-07-13T08:04:06;31.30;56.90
66608;DHT22;53462;39.616;8.824;2023-07-13T08:06:32;31.60;56.40
66608;DHT22;53462;39.616;8.824;2023-07-13T08:08:59;31.60;56.40
66608;DHT22;53462;39.616;8.824;2023-07-13T08:11:25;31.50;55.50
66608;DHT22;53462;39.616;8.824;2023-07-13T08:13:51;31.70;55.30
66608;DHT22;53462;39.616;8.824;2023-07-13T08:16:18;31.70;54.20
66608;DHT22;53462;39.616;8.824;2023-07-13T08:18:44;32.00;54.10
66608;DHT22;53462;39.616;8.824;2023-07-13T08:21:10;32.50;52.20
66608;DHT22;53462;39.616;8.824;2023-07-13T08:23:36;32.70;51.40
66608;DHT22;53462;39.616;8.824;2023-07-13T08:26:02;32.80;50.10
66608;DHT22;53462;39.616;8.824;2023-07-13T08:28:33;33.00;50.10
66608;DHT22;53462;39.616;8.824;2023-07-13T08:31:04;33.20;50.20
66608;DHT22;53462;39.616;8.824;2023-07-13T08:33:30;33.30;49.30
66608;DHT22;53462;39.616;8.824;2023-07-13T08:35:57;33.60;48.70
66608;DHT22;53462;39.616;8.824;2023-07-13T08:38:24;34.00;47.40
66608;DHT22;53462;39.616;8.824;2023-07-13T08:40:55;34.00;46.50
66608;DHT22;53462;39.616;8.824;2023-07-13T08:43:36;34.10;47.80
66608;DHT22;53462;39.616;8.824;2023-07-13T08:48:43;34.60;47.60
66608;DHT22;53462;39.616;8.824;2023-07-13T08:53:50;35.10;44.50
66608;DHT22;53462;39.616;8.824;2023-07-13T08:56:22;35.20;44.80
66608;DHT22;53462;39.616;8.824;2023-07-13T08:59:02;35.40;42.80
66608;DHT22;53462;39.616;8.824;2023-07-13T09:01:50;35.50;43.50
66608;DHT22;53462;39.616;8.824;2023-07-13T09:04:22;35.30;40.90
66608;DHT22;53462;39.616;8.824;2023-07-13T09:14:53;34.30;43.10
66608;DHT22;53462;39.616;8.824;2023-07-13T11:10:56;38.30;39.30
66608;DHT22;53462;39.616;8.824;2023-07-13T11:18:50;38.00;40.10
66608;DHT22;53462;39.616;8.824;2023-07-13T11:21:19;38.00;42.90
66608;DHT22;53462;39.616;8.824;2023-07-13T11:23:53;38.10;42.80
66608;DHT22;53462;39.616;8.824;2023-07-13T11:26:39;37.80;44.30
66608;DHT22;53462;39.616;8.824;2023-07-13T11:31:55;37.70;44.40
66608;DHT22;53462;39.616;8.824;2023-07-13T11:34:33;37.70;44.90
66608;DHT22;53462;39.616;8.824;2023-07-13T11:36:59;37.80;43.50
66608;DHT22;53462;39.616;8.824;2023-07-13T11:39:37;37.80;43.90
66608;DHT22;53462;39.616;8.824;2023-07-13T11:42:15;37.80;43.10
66608;DHT22;53462;39.616;8.824;2023-07-13T11:44:48;37.60;43.30
66608;DHT22;53462;39.616;8.824;2023-07-13T11:47:21;37.60;43.10
66608;DHT22;53462;39.616;8.824;2023-07-13T11:49:54;37.50;43.20
66608;DHT22;53462;39.616;8.824;2023-07-13T11:52:30;37.70;44.50
66608;DHT22;53462;39.616;8.824;2023-07-13T11:55:01;37.80;45.00
66608;DHT22;53462;39.616;8.824;2023-07-13T11:57:36;37.70;43.60
66608;DHT22;53462;39.616;8.824;2023-07-13T12:00:15;37.40;43.90
66608;DHT22;53462;39.616;8.824;2023-07-13T12:02:45;37.30;42.50
66608;DHT22;53462;39.616;8.824;2023-07-13T12:05:17;37.60;43.90
66608;DHT22;53462;39.616;8.824;2023-07-13T12:07:47;37.10;43.80
66608;DHT22;53462;39.616;8.824;2023-07-13T12:10:21;37.50;44.00
66608;DHT22;53462;39.616;8.824;2023-07-13T12:12:56;37.60;44.80
66608;DHT22;53462;39.616;8.824;2023-07-13T12:15:26;37.80;44.00
66608;DHT22;53462;39.616;8.824;2023-07-13T12:17:54;37.80;43.10
66608;DHT22;53462;39.616;8.824;2023-07-13T12:20:30;37.60;43.20
66608;DHT22;53462;39.616;8.824;2023-07-13T12:22:59;37.20;45.30
66608;DHT22;53462;39.616;8.824;2023-07-13T12:25:28;37.30;44.90
66608;DHT22;53462;39.616;8.824;2023-07-13T12:27:55;37.40;45.50
66608;DHT22;53462;39.616;8.824;2023-07-13T12:30:32;37.60;44.70
66608;DHT22;53462;39.616;8.824;2023-07-13T12:33:10;37.60;42.20
66608;DHT22;53462;39.616;8.824;2023-07-13T12:35:48;37.50;44.80
66608;DHT22;53462;39.616;8.824;2023-07-13T12:38:24;37.40;44.70
66608;DHT22;53462;39.616;8.824;2023-07-13T12:40:58;37.30;43.10
66608;DHT22;53462;39.616;8.824;2023-07-13T12:43:26;37.20;43.00
66608;DHT22;53462;39.616;8.824;2023-07-13T12:46:05;37.00;43.70
66608;DHT22;53462;39.616;8.824;2023-07-13T12:48:42;36.80;44.30
66608;DHT22;53462;39.616;8.824;2023-07-13T12:51:13;37.10;46.40
66608;DHT22;53462;39.616;8.824;2023-07-13T12:53:49;37.30;45.80
66608;DHT22;53462;39.616;8.824;2023-07-13T12:56:24;37.30;46.10
66608;DHT22;53462;39.616;8.824;2023-07-13T12:59:00;37.30;44.60
66608;DHT22;53462;39.616;8.824;2023-07-13T13:01:28;37.10;45.00
66608;DHT22;53462;39.616;8.824;2023-07-13T13:03:55;36.90;46.30
66608;DHT22;53462;39.616;8.824;2023-07-13T13:06:27;37.00;47.20
66608;DHT22;53462;39.616;8.824;2023-07-13T13:08:55;37.00;44.90
66608;DHT22;53462;39.616;8.824;2023-07-13T13:11:24;36.90;46.10
66608;DHT22;53462;39.616;8.824;2023-07-13T13:13:52;36.80;43.90
66608;DHT22;53462;39.616;8.824;2023-07-13T13:16:22;36.60;43.80
66608;DHT22;53462;39.616;8.824;2023-07-13T13:18:54;36.70;44.90
66608;DHT22;53462;39.616;8.824;2023-07-13T13:21:23;36.90;45.20
66608;DHT22;53462;39.616;8.824;2023-07-13T13:23:49;36.90;44.60
66608;DHT22;53462;39.616;8.824;2023-07-13T13:26:18;36.60;44.50
66608;DHT22;53462;39.616;8.824;2023-07-13T13:28:45;36.60;43.90
66608;DHT22;53462;39.616;8.824;2023-07-13T13:31:12;36.50;44.40
66608;DHT22;53462;39.616;8.824;2023-07-13T13:33:44;36.30;45.30
66608;DHT22;53462;39.616;8.824;2023-07-13T13:36:23;36.10;45.00
66608;DHT22;53462;39.616;8.824;2023-07-13T13:38:50;36.00;46.30
66608;DHT22;53462;39.616;8.824;2023-07-13T13:41:16;36.10;44.20
66608;DHT22;53462;39.616;8.824;2023-07-13T13:43:43;35.80;45.50
66608;DHT22;53462;39.616;8.824;2023-07-13T13:46:18;35.90;46.50
66608;DHT22;53462;39.616;8.824;2023-07-13T13:48:45;35.70;46.90
66608;DHT22;53462;39.616;8.824;2023-07-13T13:51:19;35.90;45.50
66608;DHT22;53462;39.616;8.824;2023-07-13T13:53:46;35.90;45.40
66608;DHT22;53462;39.616;8.824;2023-07-13T13:56:13;35.80;45.80
66608;DHT22;53462;39.616;8.824;2023-07-13T13:58:40;35.90;46.40
66608;DHT22;53462;39.616;8.824;2023-07-13T14:01:21;35.90;46.70
66608;DHT22;53462;39.616;8.824;2023-07-13T14:03:48;35.90;46.80
66608;DHT22;53462;39.616;8.824;2023-07-13T14:06:17;35.90;46.00
66608;DHT22;53462;39.616;8.824;2023-07-13T14:08:43;35.90;44.30
66608;DHT22;53462;39.616;8.824;2023-07-13T14:11:18;35.80;44.00
66608;DHT22;53462;39.616;8.824;2023-07-13T14:13:50;35.70;43.30
66608;DHT22;53462;39.616;8.824;2023-07-13T14:16:19;35.70;44.20
66608;DHT22;53462;39.616;8.824;2023-07-13T14:18:47;35.70;45.90
66608;DHT22;53462;39.616;8.824;2023-07-13T14:21:15;35.90;46.00
66608;DHT22;53462;39.616;8.824;2023-07-13T14:23:43;35.50;47.00
66608;DHT22;53462;39.616;8.824;2023-07-13T14:26:15;35.50;47.50
66608;DHT22;53462;39.616;8.824;2023-07-13T14:28:42;35.50;47.00
66608;DHT22;53462;39.616;8.824;2023-07-13T14:31:10;35.50;47.70
66608;DHT22;53462;39.616;8.824;2023-07-13T14:33:36;35.30;48.20
66608;DHT22;53462;39.616;8.824;2023-07-13T14:36:05;35.50;49.10
66608;DHT22;53462;39.616;8.824;2023-07-13T14:38:35;35.50;48.90
66608;DHT22;53462;39.616;8.824;2023-07-13T14:41:01;35.30;48.70
66608;DHT22;53462;39.616;8.824;2023-07-13T14:43:27;35.30;49.80
66608;DHT22;53462;39.616;8.824;2023-07-13T14:45:55;35.20;48.60
66608;DHT22;53462;39.616;8.824;2023-07-13T14:48:23;35.10;48.10
66608;DHT22;53462;39.616;8.824;2023-07-13T14:50:57;34.90;48.30
66608;DHT22;53462;39.616;8.824;2023-07-13T14:53:25;34.80;47.80
66608;DHT22;53462;39.616;8.824;2023-07-13T14:55:55;34.80;48.30
66608;DHT22;53462;39.616;8.824;2023-07-13T14:58:22;34.80;45.80
66608;DHT22;53462;39.616;8.824;2023-07-13T15:00:48;34.80;49.20
66608;DHT22;53462;39.616;8.824;2023-07-13T15:03:22;34.70;49.50
66608;DHT22;53462;39.616;8.824;2023-07-13T15:05:48;34.70;49.40
66608;DHT22;53462;39.616;8.824;2023-07-13T15:08:15;34.70;48.30
66608;DHT22;53462;39.616;8.824;2023-07-13T15:10:41;34.80;49.90
66608;DHT22;53462;39.616;8.824;2023-07-13T15:13:21;34.80;52.60
66608;DHT22;53462;39.616;8.824;2023-07-13T15:15:49;34.80;51.90
66608;DHT22;53462;39.616;8.824;2023-07-13T15:18:21;34.50;51.00
66608;DHT22;53462;39.616;8.824;2023-07-13T15:20:48;34.50;53.80
66608;DHT22;53462;39.616;8.824;2023-07-13T15:23:16;34.50;53.60
66608;DHT22;53462;39.616;8.824;2023-07-13T15:25:43;34.50;53.10
66608;DHT22;53462;39.616;8.824;2023-07-13T15:28:10;34.40;54.10
66608;DHT22;53462;39.616;8.824;2023-07-13T15:30:47;34.40;54.30
66608;DHT22;53462;39.616;8.824;2023-07-13T15:35:47;34.20;55.40
66608;DHT22;53462;39.616;8.824;2023-07-13T15:38:17;34.10;55.30
66608;DHT22;53462;39.616;8.824;2023-07-13T15:40:43;34.10;55.70
66608;DHT22;53462;39.616;8.824;2023-07-13T15:43:14;34.00;55.90
66608;DHT22;53462;39.616;8.824;2023-07-13T15:45:41;34.00;56.10
66608;DHT22;53462;39.616;8.824;2023-07-13T15:48:23;33.90;56.40
66608;DHT22;53462;39.616;8.824;2023-07-13T15:50:51;33.90;56.40
66608;DHT22;53462;39.616;8.824;2023-07-13T15:53:31;33.90;56.50
66608;DHT22;53462;39.616;8.824;2023-07-13T15:55:58;33.70;56.90
66608;DHT22;53462;39.616;8.824;2023-07-13T15:58:24;33.50;57.40
66608;DHT22;53462;39.616;8.824;2023-07-13T16:00:51;33.60;57.30
66608;DHT22;53462;39.616;8.824;2023-07-13T16:03:17;33.60;57.70
66608;DHT22;53462;39.616;8.824;2023-07-13T16:05:44;33.70;57.50
66608;DHT22;53462;39.616;8.824;2023-07-13T16:08:27;33.70;57.80
66608;DHT22;53462;39.616;8.824;2023-07-13T16:10:56;33.60;58.00
66608;DHT22;53462;39.616;8.824;2023-07-13T16:13:22;33.60;58.30
66608;DHT22;53462;39.616;8.824;2023-07-13T16:15:51;33.40;58.70
66608;DHT22;53462;39.616;8.824;2023-07-13T16:18:17;33.40;58.60
66608;DHT22;53462;39.616;8.824;2023-07-13T16:20:45;33.20;58.80
66608;DHT22;53462;39.616;8.824;2023-07-13T16:23:13;33.10;58.90
66608;DHT22;53462;39.616;8.824;2023-07-13T16:25:40;33.10;59.50
66608;DHT22;53462;39.616;8.824;2023-07-13T16:28:11;33.00;59.80
66608;DHT22;53462;39.616;8.824;2023-07-13T16:30:38;32.70;60.10
66608;DHT22;53462;39.616;8.824;2023-07-13T16:33:05;32.60;60.40
66608;DHT22;53462;39.616;8.824;2023-07-13T16:35:38;32.60;60.60
66608;DHT22;53462;39.616;8.824;2023-07-13T16:38:17;32.50;61.10
66608;DHT22;53462;39.616;8.824;2023-07-13T16:40:43;32.40;61.90
66608;DHT22;53462;39.616;8.824;2023-07-13T16:43:13;32.30;62.60
66608;DHT22;53462;39.616;8.824;2023-07-13T16:45:39;32.10;63.50
66608;DHT22;53462;39.616;8.824;2023-07-13T16:48:13;32.10;63.30
66608;DHT22;53462;39.616;8.824;2023-07-13T16:50:42;31.90;63.90
66608;DHT22;53462;39.616;8.824;2023-07-13T16:53:20;32.00;63.90
66608;DHT22;53462;39.616;8.824;2023-07-13T16:55:48;31.90;64.30
66608;DHT22;53462;39.616;8.824;2023-07-13T16:58:16;31.80;64.70
66608;DHT22;53462;39.616;8.824;2023-07-13T17:00:43;31.80;65.30
66608;DHT22;53462;39.616;8.824;2023-07-13T17:03:09;31.70;65.80
66608;DHT22;53462;39.616;8.824;2023-07-13T17:05:42;31.50;66.30
66608;DHT22;53462;39.616;8.824;2023-07-13T17:08:21;31.40;66.40
66608;DHT22;53462;39.616;8.824;2023-07-13T17:10:49;31.30;66.70
66608;DHT22;53462;39.616;8.824;2023-07-13T17:13:16;31.30;66.90
66608;DHT22;53462;39.616;8.824;2023-07-13T17:15:44;31.20;67.20
66608;DHT22;53462;39.616;8.824;2023-07-13T17:18:12;31.10;67.30
66608;DHT22;53462;39.616;8.824;2023-07-13T17:20:42;31.00;67.80
66608;DHT22;53462;39.616;8.824;2023-07-13T17:23:25;31.00;67.70
66608;DHT22;53462;39.616;8.824;2023-07-13T17:25:52;30.90;67.90
66608;DHT22;53462;39.616;8.824;2023-07-13T17:28:19;30.80;68.20
66608;DHT22;53462;39.616;8.824;2023-07-13T17:30:49;30.80;68.10
66608;DHT22;53462;39.616;8.824;2023-07-13T17:33:38;30.60;68.70
66608;DHT22;53462;39.616;8.824;2023-07-13T17:36:11;30.60;68.90
66608;DHT22;53462;39.616;8.824;2023-07-13T17:38:43;30.50;69.50
66608;DHT22;53462;39.616;8.824;2023-07-13T17:41:12;30.50;69.50
66608;DHT22;53462;39.616;8.824;2023-07-13T17:43:44;30.50;69.50
66608;DHT22;53462;39.616;8.824;2023-07-13T17:48:41;30.20;69.90
66608;DHT22;53462;39.616;8.824;2023-07-13T17:51:10;30.10;70.00
66608;DHT22;53462;39.616;8.824;2023-07-13T17:53:36;30.00;70.30
66608;DHT22;53462;39.616;8.824;2023-07-13T17:56:04;29.90;70.40
66608;DHT22;53462;39.616;8.824;2023-07-13T17:58:31;29.70;70.90
66608;DHT22;53462;39.616;8.824;2023-07-13T18:00:57;29.70;70.80